sensor_id;sensor_type;location;lat;lon;timestamp;P1;durP1;ratioP1;P2;durP2;ratioP2
64915;SDS011;51427;-27.442;153.014;2023-06-14T00:02:21;2.97;;;1.30;;
64915;SDS011;51427;-27.442;153.014;2023-06-14T00:04:48;2.00;;;1.17;;
64915;SDS011;51427;-27.442;153.014;2023-06-14T00:07:18;1.95;;;1.00;;
64915;SDS011;51427;-27.442;153.014;2023-06-14T00:09:49;1.25;;;1.02;;
64915;SDS011;51427;-27.442;153.014;2023-06-14T00:12:16;1.58;;;1.15;;
64915;SDS011;51427;-27.442;153.014;2023-06-14T00:14:43;1.00;;;0.85;;
64915;SDS011;51427;-27.442;153.014;2023-06-14T00:17:11;0.93;;;0.70;;
64915;SDS011;51427;-27.442;153.014;2023-06-14T00:19:38;1.05;;;0.63;;
64915;SDS011;51427;-27.442;153.014;2023-06-14T00:22:05;1.48;;;0.60;;
64915;SDS011;51427;-27.442;153.014;2023-06-14T00:24:33;0.73;;;0.60;;
64915;SDS011;51427;-27.442;153.014;2023-06-14T00:27:00;0.50;;;0.50;;
64915;SDS011;51427;-27.442;153.014;2023-06-14T00:29:27;0.60;;;0.60;;
64915;SDS011;51427;-27.442;153.014;2023-06-14T00:31:54;0.60;;;0.50;;
64915;SDS011;51427;-27.442;153.014;2023-06-14T00:34:21;0.85;;;0.85;;
64915;SDS011;51427;-27.442;153.014;2023-06-14T00:36:49;1.23;;;0.52;;
64915;SDS011;51427;-27.442;153.014;2023-06-14T00:39:16;0.50;;;0.50;;
64915;SDS011;51427;-27.442;153.014;2023-06-14T00:41:43;1.38;;;0.77;;
64915;SDS011;51427;-27.442;153.014;2023-06-14T00:44:10;0.65;;;0.65;;
64915;SDS011;51427;-27.442;153.014;2023-06-14T00:46:40;0.77;;;0.45;;
64915;SDS011;51427;-27.442;153.014;2023-06-14T00:49:07;1.00;;;0.60;;
64915;SDS011;51427;-27.442;153.014;2023-06-14T00:51:34;0.68;;;0.60;;
64915;SDS011;51427;-27.442;153.014;2023-06-14T00:54:03;1.20;;;0.60;;
64915;SDS011;51427;-27.442;153.014;2023-06-14T00:56:30;0.47;;;0.47;;
64915;SDS011;51427;-27.442;153.014;2023-06-14T00:58:58;2.30;;;0.45;;
64915;SDS011;51427;-27.442;153.014;2023-06-14T01:01:25;0.50;;;0.50;;
64915;SDS011;51427;-27.442;153.014;2023-06-14T01:03:54;0.52;;;0.52;;
64915;SDS011;51427;-27.442;153.014;2023-06-14T01:12:21;1.95;;;0.70;;
64915;SDS011;51427;-27.442;153.014;2023-06-14T01:15:14;0.80;;;0.57;;
64915;SDS011;51427;-27.442;153.014;2023-06-14T01:17:46;1.23;;;0.50;;
64915;SDS011;51427;-27.442;153.014;2023-06-14T01:20:19;1.60;;;0.60;;
64915;SDS011;51427;-27.442;153.014;2023-06-14T01:22:50;1.55;;;0.60;;
64915;SDS011;51427;-27.442;153.014;2023-06-14T01:25:21;1.38;;;0.75;;
64915;SDS011;51427;-27.442;153.014;2023-06-14T01:27:56;0.90;;;0.50;;
64915;SDS011;51427;-27.442;153.014;2023-06-14T01:30:27;0.70;;;0.47;;
64915;SDS011;51427;-27.442;153.014;2023-06-14T01:32:55;0.57;;;0.45;;
64915;SDS011;51427;-27.442;153.014;2023-06-14T01:35:24;0.60;;;0.60;;
64915;SDS011;51427;-27.442;153.014;2023-06-14T01:37:51;1.10;;;0.70;;
64915;SDS011;51427;-27.442;153.014;2023-06-14T01:40:19;0.70;;;0.70;;
64915;SDS011;51427;-27.442;153.014;2023-06-14T01:42:47;0.70;;;0.70;;
64915;SDS011;51427;-27.442;153.014;2023-06-14T01:45:16;0.77;;;0.70;;
64915;SDS011;51427;-27.442;153.014;2023-06-14T01:47:45;2.17;;;0.77;;
64915;SDS011;51427;-27.442;153.014;2023-06-14T01:50:12;1.95;;;1.75;;
64915;SDS011;51427;-27.442;153.014;2023-06-14T01:52:40;3.20;;;2.90;;
64915;SDS011;51427;-27.442;153.014;2023-06-14T01:55:07;1.30;;;0.73;;
64915;SDS011;51427;-27.442;153.014;2023-06-14T01:57:35;1.27;;;0.88;;
64915;SDS011;51427;-27.442;153.014;2023-06-14T02:00:03;1.67;;;0.80;;
64915;SDS011;51427;-27.442;153.014;2023-06-14T02:02:38;0.75;;;0.75;;
64915;SDS011;51427;-27.442;153.014;2023-06-14T02:05:06;0.63;;;0.50;;
64915;SDS011;51427;-27.442;153.014;2023-06-14T02:07:34;1.00;;;0.52;;
64915;SDS011;51427;-27.442;153.014;2023-06-14T02:10:02;1.35;;;0.70;;
64915;SDS011;51427;-27.442;153.014;2023-06-14T02:12:30;0.73;;;0.40;;
64915;SDS011;51427;-27.442;153.014;2023-06-14T02:14:57;0.40;;;0.40;;
64915;SDS011;51427;-27.442;153.014;2023-06-14T02:17:24;0.77;;;0.77;;
64915;SDS011;51427;-27.442;153.014;2023-06-14T02:19:52;1.75;;;1.02;;
64915;SDS011;51427;-27.442;153.014;2023-06-14T02:22:19;2.15;;;1.08;;
64915;SDS011;51427;-27.442;153.014;2023-06-14T02:24:47;0.70;;;0.70;;
64915;SDS011;51427;-27.442;153.014;2023-06-14T02:27:15;0.30;;;0.30;;
64915;SDS011;51427;-27.442;153.014;2023-06-14T02:29:43;0.88;;;0.88;;
64915;SDS011;51427;-27.442;153.014;2023-06-14T02:32:10;1.33;;;0.63;;
64915;SDS011;51427;-27.442;153.014;2023-06-14T02:34:37;1.02;;;0.40;;
64915;SDS011;51427;-27.442;153.014;2023-06-14T02:37:06;4.45;;;4.22;;
64915;SDS011;51427;-27.442;153.014;2023-06-14T02:39:34;0.75;;;0.75;;
64915;SDS011;51427;-27.442;153.014;2023-06-14T02:42:02;0.50;;;0.47;;
64915;SDS011;51427;-27.442;153.014;2023-06-14T02:44:29;0.75;;;0.63;;
64915;SDS011;51427;-27.442;153.014;2023-06-14T02:46:57;0.60;;;0.60;;
64915;SDS011;51427;-27.442;153.014;2023-06-14T02:49:26;0.85;;;0.30;;
64915;SDS011;51427;-27.442;153.014;2023-06-14T02:51:53;1.00;;;0.47;;
64915;SDS011;51427;-27.442;153.014;2023-06-14T02:54:20;0.65;;;0.65;;
64915;SDS011;51427;-27.442;153.014;2023-06-14T02:56:48;0.88;;;0.88;;
64915;SDS011;51427;-27.442;153.014;2023-06-14T02:59:16;1.48;;;0.80;;
64915;SDS011;51427;-27.442;153.014;2023-06-14T03:01:44;0.43;;;0.40;;
64915;SDS011;51427;-27.442;153.014;2023-06-14T03:04:12;1.33;;;0.60;;
64915;SDS011;51427;-27.442;153.014;2023-06-14T03:06:39;0.57;;;0.55;;
64915;SDS011;51427;-27.442;153.014;2023-06-14T03:09:09;1.65;;;0.70;;
64915;SDS011;51427;-27.442;153.014;2023-06-14T03:11:38;1.92;;;0.98;;
64915;SDS011;51427;-27.442;153.014;2023-06-14T03:14:05;0.80;;;0.80;;
64915;SDS011;51427;-27.442;153.014;2023-06-14T03:16:34;1.05;;;0.70;;
64915;SDS011;51427;-27.442;153.014;2023-06-14T03:19:02;3.20;;;2.70;;
64915;SDS011;51427;-27.442;153.014;2023-06-14T03:21:30;1.88;;;1.00;;
64915;SDS011;51427;-27.442;153.014;2023-06-14T03:23:58;4.03;;;3.20;;
64915;SDS011;51427;-27.442;153.014;2023-06-14T03:26:25;5.10;;;3.97;;
64915;SDS011;51427;-27.442;153.014;2023-06-14T03:28:53;0.98;;;0.73;;
64915;SDS011;51427;-27.442;153.014;2023-06-14T03:31:20;2.97;;;1.90;;
64915;SDS011;51427;-27.442;153.014;2023-06-14T03:33:47;1.77;;;1.00;;
64915;SDS011;51427;-27.442;153.014;2023-06-14T03:36:14;3.72;;;1.90;;
64915;SDS011;51427;-27.442;153.014;2023-06-14T03:38:43;4.85;;;2.95;;
64915;SDS011;51427;-27.442;153.014;2023-06-14T03:41:10;18.67;;;11.70;;
64915;SDS011;51427;-27.442;153.014;2023-06-14T03:43:37;95.30;;;64.20;;
64915;SDS011;51427;-27.442;153.014;2023-06-14T03:46:05;10.85;;;7.30;;
64915;SDS011;51427;-27.442;153.014;2023-06-14T03:48:32;5.97;;;4.50;;
64915;SDS011;51427;-27.442;153.014;2023-06-14T03:50:59;20.75;;;14.18;;
64915;SDS011;51427;-27.442;153.014;2023-06-14T03:53:26;10.38;;;5.75;;
64915;SDS011;51427;-27.442;153.014;2023-06-14T03:55:55;14.48;;;9.43;;
64915;SDS011;51427;-27.442;153.014;2023-06-14T03:58:23;2.35;;;1.73;;
64915;SDS011;51427;-27.442;153.014;2023-06-14T04:00:50;3.60;;;1.98;;
64915;SDS011;51427;-27.442;153.014;2023-06-14T04:03:18;1.00;;;0.70;;
64915;SDS011;51427;-27.442;153.014;2023-06-14T04:05:50;1.05;;;0.60;;
64915;SDS011;51427;-27.442;153.014;2023-06-14T04:08:22;1.55;;;1.17;;
64915;SDS011;51427;-27.442;153.014;2023-06-14T04:10:50;0.63;;;0.60;;
64915;SDS011;51427;-27.442;153.014;2023-06-14T04:13:17;1.83;;;0.70;;
64915;SDS011;51427;-27.442;153.014;2023-06-14T04:15:44;1.35;;;0.60;;
64915;SDS011;51427;-27.442;153.014;2023-06-14T04:18:12;4.03;;;3.22;;
64915;SDS011;51427;-27.442;153.014;2023-06-14T04:20:39;1.30;;;0.57;;
64915;SDS011;51427;-27.442;153.014;2023-06-14T04:23:13;0.77;;;0.70;;
64915;SDS011;51427;-27.442;153.014;2023-06-14T04:25:41;0.85;;;0.85;;
64915;SDS011;51427;-27.442;153.014;2023-06-14T04:28:13;2.25;;;0.80;;
64915;SDS011;51427;-27.442;153.014;2023-06-14T04:30:43;0.60;;;0.60;;
64915;SDS011;51427;-27.442;153.014;2023-06-14T04:33:13;0.50;;;0.50;;
64915;SDS011;51427;-27.442;153.014;2023-06-14T04:35:40;1.25;;;0.70;;
64915;SDS011;51427;-27.442;153.014;2023-06-14T04:38:08;1.42;;;0.80;;
64915;SDS011;51427;-27.442;153.014;2023-06-14T04:40:35;1.05;;;0.65;;
64915;SDS011;51427;-27.442;153.014;2023-06-14T04:43:08;0.68;;;0.57;;
64915;SDS011;51427;-27.442;153.014;2023-06-14T04:45:38;1.42;;;0.40;;
64915;SDS011;51427;-27.442;153.014;2023-06-14T04:48:06;0.40;;;0.40;;
64915;SDS011;51427;-27.442;153.014;2023-06-14T04:50:34;0.40;;;0.40;;
64915;SDS011;51427;-27.442;153.014;2023-06-14T04:53:01;0.40;;;0.40;;
64915;SDS011;51427;-27.442;153.014;2023-06-14T04:55:28;0.45;;;0.40;;
64915;SDS011;51427;-27.442;153.014;2023-06-14T04:57:56;0.95;;;0.50;;
64915;SDS011;51427;-27.442;153.014;2023-06-14T05:00:24;2.35;;;0.50;;
64915;SDS011;51427;-27.442;153.014;2023-06-14T05:02:51;2.63;;;0.40;;
64915;SDS011;51427;-27.442;153.014;2023-06-14T05:05:18;1.95;;;0.60;;
64915;SDS011;51427;-27.442;153.014;2023-06-14T05:07:45;0.40;;;0.40;;
64915;SDS011;51427;-27.442;153.014;2023-06-14T05:10:13;2.50;;;0.50;;
64915;SDS011;51427;-27.442;153.014;2023-06-14T05:12:40;1.13;;;0.45;;
64915;SDS011;51427;-27.442;153.014;2023-06-14T05:15:09;2.72;;;0.40;;
64915;SDS011;51427;-27.442;153.014;2023-06-14T05:17:36;0.45;;;0.30;;
64915;SDS011;51427;-27.442;153.014;2023-06-14T05:20:06;0.38;;;0.38;;
64915;SDS011;51427;-27.442;153.014;2023-06-14T05:22:35;0.47;;;0.47;;
64915;SDS011;51427;-27.442;153.014;2023-06-14T05:25:03;0.85;;;0.40;;
64915;SDS011;51427;-27.442;153.014;2023-06-14T05:27:30;1.33;;;0.50;;
64915;SDS011;51427;-27.442;153.014;2023-06-14T05:30:01;2.22;;;0.43;;
64915;SDS011;51427;-27.442;153.014;2023-06-14T05:32:29;0.55;;;0.45;;
64915;SDS011;51427;-27.442;153.014;2023-06-14T05:34:56;0.70;;;0.30;;
64915;SDS011;51427;-27.442;153.014;2023-06-14T05:37:24;0.40;;;0.20;;
64915;SDS011;51427;-27.442;153.014;2023-06-14T05:39:51;2.58;;;0.30;;
64915;SDS011;51427;-27.442;153.014;2023-06-14T05:42:18;1.58;;;0.40;;
64915;SDS011;51427;-27.442;153.014;2023-06-14T05:44:45;1.60;;;0.82;;
64915;SDS011;51427;-27.442;153.014;2023-06-14T05:47:13;5.63;;;1.25;;
64915;SDS011;51427;-27.442;153.014;2023-06-14T05:49:40;1.00;;;0.50;;
64915;SDS011;51427;-27.442;153.014;2023-06-14T05:52:07;2.35;;;0.73;;
64915;SDS011;51427;-27.442;153.014;2023-06-14T05:54:37;8.38;;;4.75;;
64915;SDS011;51427;-27.442;153.014;2023-06-14T05:57:04;2.45;;;1.52;;
64915;SDS011;51427;-27.442;153.014;2023-06-14T05:59:32;3.75;;;2.03;;
64915;SDS011;51427;-27.442;153.014;2023-06-14T06:01:59;9.30;;;5.55;;
64915;SDS011;51427;-27.442;153.014;2023-06-14T06:04:26;4.25;;;2.63;;
64915;SDS011;51427;-27.442;153.014;2023-06-14T06:06:53;1.52;;;1.33;;
64915;SDS011;51427;-27.442;153.014;2023-06-14T06:09:20;8.30;;;6.40;;
64915;SDS011;51427;-27.442;153.014;2023-06-14T06:11:48;3.70;;;1.80;;
64915;SDS011;51427;-27.442;153.014;2023-06-14T06:14:15;0.85;;;0.65;;
64915;SDS011;51427;-27.442;153.014;2023-06-14T06:16:42;1.85;;;1.33;;
64915;SDS011;51427;-27.442;153.014;2023-06-14T06:19:09;2.25;;;2.05;;
64915;SDS011;51427;-27.442;153.014;2023-06-14T06:21:37;1.05;;;0.77;;
64915;SDS011;51427;-27.442;153.014;2023-06-14T06:24:04;0.82;;;0.68;;
64915;SDS011;51427;-27.442;153.014;2023-06-14T06:26:32;2.20;;;1.33;;
64915;SDS011;51427;-27.442;153.014;2023-06-14T06:28:59;1.27;;;0.82;;
64915;SDS011;51427;-27.442;153.014;2023-06-14T06:31:27;1.42;;;0.57;;
64915;SDS011;51427;-27.442;153.014;2023-06-14T06:33:55;1.48;;;0.60;;
64915;SDS011;51427;-27.442;153.014;2023-06-14T06:36:22;0.82;;;0.60;;
64915;SDS011;51427;-27.442;153.014;2023-06-14T06:38:50;3.13;;;0.63;;
64915;SDS011;51427;-27.442;153.014;2023-06-14T06:41:18;0.40;;;0.40;;
64915;SDS011;51427;-27.442;153.014;2023-06-14T06:43:45;0.30;;;0.30;;
64915;SDS011;51427;-27.442;153.014;2023-06-14T06:46:12;2.75;;;1.67;;
64915;SDS011;51427;-27.442;153.014;2023-06-14T06:48:39;2.22;;;0.60;;
64915;SDS011;51427;-27.442;153.014;2023-06-14T06:51:07;1.85;;;0.50;;
64915;SDS011;51427;-27.442;153.014;2023-06-14T06:53:34;0.43;;;0.40;;
64915;SDS011;51427;-27.442;153.014;2023-06-14T06:56:01;2.15;;;0.70;;
64915;SDS011;51427;-27.442;153.014;2023-06-14T06:58:29;1.17;;;1.00;;
64915;SDS011;51427;-27.442;153.014;2023-06-14T07:00:56;0.40;;;0.35;;
64915;SDS011;51427;-27.442;153.014;2023-06-14T07:03:23;1.55;;;1.10;;
64915;SDS011;51427;-27.442;153.014;2023-06-14T07:05:50;0.82;;;0.55;;
64915;SDS011;51427;-27.442;153.014;2023-06-14T07:08:17;0.68;;;0.45;;
64915;SDS011;51427;-27.442;153.014;2023-06-14T07:10:45;1.30;;;0.70;;
64915;SDS011;51427;-27.442;153.014;2023-06-14T07:13:12;1.33;;;1.08;;
64915;SDS011;51427;-27.442;153.014;2023-06-14T07:15:39;1.15;;;0.70;;
64915;SDS011;51427;-27.442;153.014;2023-06-14T07:18:06;0.70;;;0.70;;
64915;SDS011;51427;-27.442;153.014;2023-06-14T07:20:34;0.25;;;0.25;;
64915;SDS011;51427;-27.442;153.014;2023-06-14T07:23:03;2.00;;;0.68;;
64915;SDS011;51427;-27.442;153.014;2023-06-14T07:25:31;1.63;;;1.52;;
64915;SDS011;51427;-27.442;153.014;2023-06-14T07:27:58;1.48;;;0.50;;
64915;SDS011;51427;-27.442;153.014;2023-06-14T07:30:25;1.05;;;0.68;;
64915;SDS011;51427;-27.442;153.014;2023-06-14T07:32:53;1.35;;;0.30;;
64915;SDS011;51427;-27.442;153.014;2023-06-14T07:35:20;0.95;;;0.40;;
64915;SDS011;51427;-27.442;153.014;2023-06-14T07:37:47;1.38;;;0.50;;
64915;SDS011;51427;-27.442;153.014;2023-06-14T07:40:15;1.27;;;0.65;;
64915;SDS011;51427;-27.442;153.014;2023-06-14T07:42:42;15.85;;;12.35;;
64915;SDS011;51427;-27.442;153.014;2023-06-14T07:45:10;2.33;;;1.40;;
64915;SDS011;51427;-27.442;153.014;2023-06-14T07:47:39;1.42;;;1.17;;
64915;SDS011;51427;-27.442;153.014;2023-06-14T07:50:06;0.73;;;0.73;;
64915;SDS011;51427;-27.442;153.014;2023-06-14T07:52:34;1.50;;;0.50;;
64915;SDS011;51427;-27.442;153.014;2023-06-14T07:55:01;0.70;;;0.60;;
64915;SDS011;51427;-27.442;153.014;2023-06-14T07:57:28;0.22;;;0.22;;
64915;SDS011;51427;-27.442;153.014;2023-06-14T07:59:55;0.43;;;0.43;;
64915;SDS011;51427;-27.442;153.014;2023-06-14T08:02:23;0.40;;;0.40;;
64915;SDS011;51427;-27.442;153.014;2023-06-14T08:04:50;1.85;;;0.40;;
64915;SDS011;51427;-27.442;153.014;2023-06-14T08:07:18;1.08;;;0.30;;
64915;SDS011;51427;-27.442;153.014;2023-06-14T08:09:45;0.35;;;0.35;;
64915;SDS011;51427;-27.442;153.014;2023-06-14T08:12:12;1.75;;;0.30;;
64915;SDS011;51427;-27.442;153.014;2023-06-14T08:14:40;1.00;;;0.50;;
64915;SDS011;51427;-27.442;153.014;2023-06-14T08:17:08;0.50;;;0.50;;
64915;SDS011;51427;-27.442;153.014;2023-06-14T08:19:35;4.45;;;4.05;;
64915;SDS011;51427;-27.442;153.014;2023-06-14T08:22:02;1.52;;;0.57;;
64915;SDS011;51427;-27.442;153.014;2023-06-14T08:24:29;1.05;;;0.70;;
64915;SDS011;51427;-27.442;153.014;2023-06-14T08:26:57;1.10;;;0.60;;
64915;SDS011;51427;-27.442;153.014;2023-06-14T08:29:26;0.47;;;0.45;;
64915;SDS011;51427;-27.442;153.014;2023-06-14T08:31:56;1.35;;;0.60;;
64915;SDS011;51427;-27.442;153.014;2023-06-14T08:34:23;1.95;;;1.08;;
64915;SDS011;51427;-27.442;153.014;2023-06-14T08:36:51;0.90;;;0.90;;
64915;SDS011;51427;-27.442;153.014;2023-06-14T08:39:18;1.75;;;1.00;;
64915;SDS011;51427;-27.442;153.014;2023-06-14T08:41:46;1.30;;;1.00;;
64915;SDS011;51427;-27.442;153.014;2023-06-14T08:44:17;4.35;;;1.10;;
64915;SDS011;51427;-27.442;153.014;2023-06-14T08:46:44;2.95;;;1.00;;
64915;SDS011;51427;-27.442;153.014;2023-06-14T08:49:13;2.35;;;1.20;;
64915;SDS011;51427;-27.442;153.014;2023-06-14T08:51:43;1.58;;;1.25;;
64915;SDS011;51427;-27.442;153.014;2023-06-14T08:54:13;2.05;;;1.45;;
64915;SDS011;51427;-27.442;153.014;2023-06-14T08:56:41;2.50;;;1.40;;
64915;SDS011;51427;-27.442;153.014;2023-06-14T08:59:09;3.97;;;1.30;;
64915;SDS011;51427;-27.442;153.014;2023-06-14T09:01:37;12.65;;;4.90;;
64915;SDS011;51427;-27.442;153.014;2023-06-14T09:04:05;1.52;;;1.38;;
64915;SDS011;51427;-27.442;153.014;2023-06-14T09:06:32;4.00;;;2.17;;
64915;SDS011;51427;-27.442;153.014;2023-06-14T09:08:59;12.80;;;6.45;;
64915;SDS011;51427;-27.442;153.014;2023-06-14T09:11:27;9.88;;;3.97;;
64915;SDS011;51427;-27.442;153.014;2023-06-14T09:13:55;3.67;;;2.70;;
64915;SDS011;51427;-27.442;153.014;2023-06-14T09:16:22;2.80;;;2.60;;
64915;SDS011;51427;-27.442;153.014;2023-06-14T09:18:49;3.10;;;1.40;;
64915;SDS011;51427;-27.442;153.014;2023-06-14T09:21:16;3.63;;;1.88;;
64915;SDS011;51427;-27.442;153.014;2023-06-14T09:23:45;4.65;;;1.85;;
64915;SDS011;51427;-27.442;153.014;2023-06-14T09:26:16;6.97;;;1.80;;
64915;SDS011;51427;-27.442;153.014;2023-06-14T09:28:49;5.00;;;1.90;;
64915;SDS011;51427;-27.442;153.014;2023-06-14T09:31:17;2.35;;;1.20;;
64915;SDS011;51427;-27.442;153.014;2023-06-14T09:33:47;1.30;;;1.20;;
64915;SDS011;51427;-27.442;153.014;2023-06-14T09:36:25;2.08;;;1.15;;
64915;SDS011;51427;-27.442;153.014;2023-06-14T09:38:56;9.57;;;1.90;;
64915;SDS011;51427;-27.442;153.014;2023-06-14T09:41:34;2.50;;;1.40;;
64915;SDS011;51427;-27.442;153.014;2023-06-14T09:44:07;4.18;;;1.10;;
64915;SDS011;51427;-27.442;153.014;2023-06-14T09:46:35;3.60;;;1.35;;
64915;SDS011;51427;-27.442;153.014;2023-06-14T09:49:03;1.65;;;1.30;;
64915;SDS011;51427;-27.442;153.014;2023-06-14T09:51:31;2.25;;;1.30;;
64915;SDS011;51427;-27.442;153.014;2023-06-14T09:54:00;3.92;;;1.48;;
64915;SDS011;51427;-27.442;153.014;2023-06-14T09:56:51;3.83;;;1.40;;
64915;SDS011;51427;-27.442;153.014;2023-06-14T09:59:22;4.25;;;1.67;;
64915;SDS011;51427;-27.442;153.014;2023-06-14T10:01:55;1.83;;;1.30;;
64915;SDS011;51427;-27.442;153.014;2023-06-14T10:04:25;1.67;;;1.50;;
64915;SDS011;51427;-27.442;153.014;2023-06-14T10:06:55;3.60;;;1.23;;
64915;SDS011;51427;-27.442;153.014;2023-06-14T10:09:22;3.88;;;1.77;;
64915;SDS011;51427;-27.442;153.014;2023-06-14T10:11:50;2.38;;;1.40;;
64915;SDS011;51427;-27.442;153.014;2023-06-14T10:14:18;2.47;;;1.10;;
64915;SDS011;51427;-27.442;153.014;2023-06-14T10:17:07;2.10;;;1.10;;
64915;SDS011;51427;-27.442;153.014;2023-06-14T10:22:18;1.45;;;1.30;;
64915;SDS011;51427;-27.442;153.014;2023-06-14T10:25:12;2.60;;;1.25;;
64915;SDS011;51427;-27.442;153.014;2023-06-14T10:27:52;2.88;;;1.63;;
64915;SDS011;51427;-27.442;153.014;2023-06-14T10:30:25;18.95;;;13.15;;
64915;SDS011;51427;-27.442;153.014;2023-06-14T10:33:03;9.50;;;6.47;;
64915;SDS011;51427;-27.442;153.014;2023-06-14T10:35:32;3.13;;;2.30;;
64915;SDS011;51427;-27.442;153.014;2023-06-14T10:38:07;5.05;;;2.88;;
64915;SDS011;51427;-27.442;153.014;2023-06-14T10:40:36;1.58;;;1.20;;
64915;SDS011;51427;-27.442;153.014;2023-06-14T10:43:23;2.33;;;0.98;;
64915;SDS011;51427;-27.442;153.014;2023-06-14T10:48:41;34.05;;;17.85;;
64915;SDS011;51427;-27.442;153.014;2023-06-14T10:51:19;33.97;;;19.23;;
64915;SDS011;51427;-27.442;153.014;2023-06-14T10:53:48;129.48;;;56.25;;
64915;SDS011;51427;-27.442;153.014;2023-06-14T10:56:29;18.33;;;8.23;;
64915;SDS011;51427;-27.442;153.014;2023-06-14T10:58:57;33.28;;;20.50;;
64915;SDS011;51427;-27.442;153.014;2023-06-14T11:01:32;24.45;;;14.50;;
64915;SDS011;51427;-27.442;153.014;2023-06-14T11:04:09;55.75;;;32.13;;
64915;SDS011;51427;-27.442;153.014;2023-06-14T11:06:49;26.67;;;16.58;;
64915;SDS011;51427;-27.442;153.014;2023-06-14T11:12:03;66.18;;;41.28;;
64915;SDS011;51427;-27.442;153.014;2023-06-14T11:14:33;20.05;;;12.98;;
64915;SDS011;51427;-27.442;153.014;2023-06-14T11:17:01;15.65;;;11.52;;
64915;SDS011;51427;-27.442;153.014;2023-06-14T11:19:29;9.75;;;8.75;;
64915;SDS011;51427;-27.442;153.014;2023-06-14T11:21:57;5.85;;;4.15;;
64915;SDS011;51427;-27.442;153.014;2023-06-14T11:24:26;11.38;;;9.55;;
64915;SDS011;51427;-27.442;153.014;2023-06-14T11:26:55;2.38;;;2.17;;
64915;SDS011;51427;-27.442;153.014;2023-06-14T11:29:23;2.97;;;2.17;;
64915;SDS011;51427;-27.442;153.014;2023-06-14T11:31:50;1.27;;;1.17;;
64915;SDS011;51427;-27.442;153.014;2023-06-14T11:34:18;1.30;;;0.73;;
64915;SDS011;51427;-27.442;153.014;2023-06-14T11:36:46;3.42;;;0.68;;
64915;SDS011;51427;-27.442;153.014;2023-06-14T11:39:14;1.48;;;0.70;;
64915;SDS011;51427;-27.442;153.014;2023-06-14T11:41:43;3.97;;;3.55;;
64915;SDS011;51427;-27.442;153.014;2023-06-14T11:44:11;2.28;;;2.00;;
64915;SDS011;51427;-27.442;153.014;2023-06-14T11:46:39;2.05;;;1.60;;
64915;SDS011;51427;-27.442;153.014;2023-06-14T11:49:07;4.85;;;1.08;;
64915;SDS011;51427;-27.442;153.014;2023-06-14T11:51:35;1.35;;;1.00;;
64915;SDS011;51427;-27.442;153.014;2023-06-14T11:54:04;1.85;;;1.40;;
64915;SDS011;51427;-27.442;153.014;2023-06-14T11:56:33;0.70;;;0.70;;
64915;SDS011;51427;-27.442;153.014;2023-06-14T11:59:02;3.40;;;1.95;;
64915;SDS011;51427;-27.442;153.014;2023-06-14T12:01:31;27.60;;;11.75;;
64915;SDS011;51427;-27.442;153.014;2023-06-14T12:04:03;2.05;;;1.10;;
64915;SDS011;51427;-27.442;153.014;2023-06-14T12:06:31;3.42;;;1.90;;
64915;SDS011;51427;-27.442;153.014;2023-06-14T12:09:05;1.50;;;0.60;;
64915;SDS011;51427;-27.442;153.014;2023-06-14T12:11:36;0.43;;;0.43;;
64915;SDS011;51427;-27.442;153.014;2023-06-14T12:14:04;1.10;;;0.65;;
64915;SDS011;51427;-27.442;153.014;2023-06-14T12:16:33;2.05;;;0.55;;
64915;SDS011;51427;-27.442;153.014;2023-06-14T12:19:15;1.58;;;0.70;;
64915;SDS011;51427;-27.442;153.014;2023-06-14T12:21:45;23.35;;;6.85;;
64915;SDS011;51427;-27.442;153.014;2023-06-14T12:24:18;144.75;;;44.38;;
64915;SDS011;51427;-27.442;153.014;2023-06-14T12:26:45;216.95;;;66.15;;
64915;SDS011;51427;-27.442;153.014;2023-06-14T12:29:13;594.70;;;189.63;;
64915;SDS011;51427;-27.442;153.014;2023-06-14T12:31:40;242.57;;;67.05;;
64915;SDS011;51427;-27.442;153.014;2023-06-14T12:34:08;152.45;;;43.40;;
64915;SDS011;51427;-27.442;153.014;2023-06-14T12:36:36;19.13;;;5.63;;
64915;SDS011;51427;-27.442;153.014;2023-06-14T12:39:10;35.55;;;9.98;;
64915;SDS011;51427;-27.442;153.014;2023-06-14T12:41:37;16.13;;;4.70;;
64915;SDS011;51427;-27.442;153.014;2023-06-14T12:44:07;1.55;;;0.63;;
64915;SDS011;51427;-27.442;153.014;2023-06-14T12:46:35;4.10;;;1.30;;
64915;SDS011;51427;-27.442;153.014;2023-06-14T12:49:07;5.97;;;1.83;;
64915;SDS011;51427;-27.442;153.014;2023-06-14T12:51:36;3.05;;;0.85;;
64915;SDS011;51427;-27.442;153.014;2023-06-14T12:54:05;2.08;;;1.10;;
64915;SDS011;51427;-27.442;153.014;2023-06-14T12:56:33;4.40;;;1.23;;
64915;SDS011;51427;-27.442;153.014;2023-06-14T12:59:01;1.42;;;0.60;;
64915;SDS011;51427;-27.442;153.014;2023-06-14T13:01:28;1.83;;;0.63;;
64915;SDS011;51427;-27.442;153.014;2023-06-14T13:03:56;2.00;;;0.73;;
64915;SDS011;51427;-27.442;153.014;2023-06-14T13:06:23;1.67;;;0.88;;
64915;SDS011;51427;-27.442;153.014;2023-06-14T13:08:51;12.00;;;4.60;;
64915;SDS011;51427;-27.442;153.014;2023-06-14T13:11:20;86.57;;;32.13;;
64915;SDS011;51427;-27.442;153.014;2023-06-14T13:13:48;171.02;;;71.55;;
64915;SDS011;51427;-27.442;153.014;2023-06-14T13:16:16;44.08;;;17.35;;
64915;SDS011;51427;-27.442;153.014;2023-06-14T13:18:43;121.75;;;49.05;;
64915;SDS011;51427;-27.442;153.014;2023-06-14T13:21:11;100.60;;;38.20;;
64915;SDS011;51427;-27.442;153.014;2023-06-14T13:23:39;41.65;;;15.18;;
64915;SDS011;51427;-27.442;153.014;2023-06-14T13:26:06;60.78;;;26.48;;
64915;SDS011;51427;-27.442;153.014;2023-06-14T13:28:34;80.82;;;38.70;;
64915;SDS011;51427;-27.442;153.014;2023-06-14T13:31:02;91.68;;;42.38;;
64915;SDS011;51427;-27.442;153.014;2023-06-14T13:33:29;29.55;;;13.40;;
64915;SDS011;51427;-27.442;153.014;2023-06-14T13:36:00;153.73;;;73.25;;
64915;SDS011;51427;-27.442;153.014;2023-06-14T13:38:28;205.43;;;93.15;;
64915;SDS011;51427;-27.442;153.014;2023-06-14T13:40:56;85.40;;;37.53;;
64915;SDS011;51427;-27.442;153.014;2023-06-14T13:43:23;75.28;;;32.08;;
64915;SDS011;51427;-27.442;153.014;2023-06-14T13:45:51;16.65;;;6.80;;
64915;SDS011;51427;-27.442;153.014;2023-06-14T13:48:18;21.23;;;8.82;;
64915;SDS011;51427;-27.442;153.014;2023-06-14T13:50:46;14.02;;;5.78;;
64915;SDS011;51427;-27.442;153.014;2023-06-14T13:53:14;16.30;;;7.05;;
64915;SDS011;51427;-27.442;153.014;2023-06-14T13:55:41;32.83;;;14.90;;
64915;SDS011;51427;-27.442;153.014;2023-06-14T13:58:09;17.00;;;8.02;;
64915;SDS011;51427;-27.442;153.014;2023-06-14T14:00:37;15.75;;;8.93;;
64915;SDS011;51427;-27.442;153.014;2023-06-14T14:03:06;13.95;;;8.95;;
64915;SDS011;51427;-27.442;153.014;2023-06-14T14:05:34;13.25;;;7.85;;
64915;SDS011;51427;-27.442;153.014;2023-06-14T14:08:03;6.93;;;4.07;;
64915;SDS011;51427;-27.442;153.014;2023-06-14T14:10:30;5.75;;;2.75;;
64915;SDS011;51427;-27.442;153.014;2023-06-14T14:12:58;4.25;;;2.17;;
64915;SDS011;51427;-27.442;153.014;2023-06-14T14:15:27;2.03;;;1.25;;
64915;SDS011;51427;-27.442;153.014;2023-06-14T14:18:00;4.57;;;2.33;;
64915;SDS011;51427;-27.442;153.014;2023-06-14T14:20:37;2.20;;;0.88;;
64915;SDS011;51427;-27.442;153.014;2023-06-14T14:23:05;1.67;;;1.00;;
64915;SDS011;51427;-27.442;153.014;2023-06-14T14:25:33;6.43;;;1.05;;
64915;SDS011;51427;-27.442;153.014;2023-06-14T14:28:01;1.98;;;0.80;;
64915;SDS011;51427;-27.442;153.014;2023-06-14T14:30:29;1.42;;;0.70;;